Time;durP1;ratioP1;P1;durP2;ratioP2;P2;SDS_P1;SDS_P2;PMS_P1;PMS_P2;Temp;Humidity;BMP_temperature;BMP_pressure;BME280_temperature;BME280_humidity;BME280_pressure;Samples;Min_cycle;Max_cycle;Signal;HPM_P1;HPM_P2
2021/01/30 00:01:33;;;;;;;2.08;0.95;;;6.30;99.90;;;;;;5068183;28;20684;-84
2021/01/30 00:03:59;;;;;;;1.00;0.70;;;6.20;99.90;;;;;;5052716;28;20207;-83
2021/01/30 00:06:26;;;;;;;1.00;0.85;;;6.20;99.90;;;;;;5068596;28;20211;-84
2021/01/30 00:08:52;;;;;;;3.55;1.63;;;6.00;99.90;;;;;;5069377;28;20242;-83
2021/01/30 00:11:18;;;;;;;4.00;1.52;;;6.10;99.90;;;;;;5059820;28;20224;-83
2021/01/30 00:13:45;;;;;;;1.88;0.98;;;6.10;99.90;;;;;;5049769;28;20212;-84
2021/01/30 00:16:14;;;;;;;1.67;1.40;;;6.20;99.90;;;;;;5050760;28;20212;-83
2021/01/30 00:18:42;;;;;;;1.10;1.00;;;6.10;99.90;;;;;;5049187;28;20207;-84
2021/01/30 00:21:10;;;;;;;4.63;2.22;;;6.20;99.90;;;;;;5060833;28;20196;-84
2021/01/30 00:23:37;;;;;;;1.38;1.27;;;6.20;99.90;;;;;;5049556;28;20212;-83
2021/01/30 00:26:03;;;;;;;4.22;1.45;;;6.10;99.90;;;;;;5065687;28;20201;-83
2021/01/30 00:28:30;;;;;;;1.88;1.20;;;6.10;99.90;;;;;;5072460;28;20211;-83
2021/01/30 00:30:56;;;;;;;1.35;1.20;;;6.10;99.90;;;;;;5058182;28;20582;-83
2021/01/30 00:33:22;;;;;;;0.80;0.77;;;6.20;99.90;;;;;;5071379;28;20214;-83
2021/01/30 00:35:50;;;;;;;1.08;0.98;;;6.10;99.90;;;;;;5055878;28;20274;-83
2021/01/30 00:38:16;;;;;;;0.60;0.60;;;6.00;99.90;;;;;;5061337;28;20222;-83
2021/01/30 00:40:42;;;;;;;2.83;0.88;;;5.90;99.90;;;;;;5073252;28;20239;-83
2021/01/30 00:43:09;;;;;;;1.00;0.88;;;6.00;99.90;;;;;;5066318;28;20200;-83
2021/01/30 00:45:35;;;;;;;5.68;1.50;;;5.90;99.90;;;;;;5054512;28;20661;-83
2021/01/30 00:48:02;;;;;;;0.80;0.80;;;5.80;99.90;;;;;;5067392;28;20228;-83
2021/01/30 00:50:28;;;;;;;1.60;0.90;;;5.90;99.90;;;;;;5053226;28;20719;-83
2021/01/30 00:52:56;;;;;;;1.75;0.90;;;5.90;99.90;;;;;;5067477;28;20199;-84
2021/01/30 00:55:23;;;;;;;2.05;0.95;;;5.90;99.90;;;;;;5067604;28;20230;-83
2021/01/30 00:57:49;;;;;;;2.15;0.93;;;6.00;99.90;;;;;;5052948;28;20239;-83
2021/01/30 01:00:18;;;;;;;1.80;0.95;;;6.10;99.90;;;;;;5056080;28;20199;-83
2021/01/30 01:02:45;;;;;;;1.95;0.88;;;6.10;99.90;;;;;;5071465;28;20195;-84
2021/01/30 01:05:14;;;;;;;1.13;0.93;;;6.10;99.90;;;;;;5070719;28;20211;-83
2021/01/30 01:07:43;;;;;;;6.40;1.05;;;6.20;99.90;;;;;;5052016;28;20705;-83
2021/01/30 01:10:12;;;;;;;0.90;0.60;;;6.10;99.90;;;;;;5069968;28;20199;-83
2021/01/30 01:12:39;;;;;;;0.70;0.70;;;6.10;99.90;;;;;;5070985;28;20660;-84
2021/01/30 01:15:08;;;;;;;1.10;1.00;;;6.10;99.90;;;;;;5071886;28;20211;-84
2021/01/30 01:17:35;;;;;;;0.93;0.80;;;6.20;99.90;;;;;;5056094;28;20203;-84
2021/01/30 01:20:01;;;;;;;0.75;0.70;;;6.10;99.90;;;;;;5053106;28;20248;-83
2021/01/30 01:22:28;;;;;;;1.30;1.10;;;6.10;99.90;;;;;;5052694;28;20208;-84
2021/01/30 01:24:54;;;;;;;0.98;0.90;;;6.00;99.90;;;;;;5066638;28;20241;-84
2021/01/30 01:27:22;;;;;;;1.83;1.48;;;6.20;99.90;;;;;;5068850;28;20217;-84
2021/01/30 01:29:48;;;;;;;0.95;0.82;;;6.20;99.90;;;;;;5054047;28;20211;-84
2021/01/30 01:32:15;;;;;;;6.78;5.35;;;6.20;99.90;;;;;;5057195;28;20257;-82
2021/01/30 01:34:43;;;;;;;2.90;0.95;;;6.30;99.90;;;;;;5052583;28;20303;-84
2021/01/30 01:37:10;;;;;;;1.77;0.73;;;6.30;99.90;;;;;;5055508;28;20211;-84
2021/01/30 01:39:36;;;;;;;0.60;0.50;;;6.30;99.90;;;;;;5068786;28;20211;-84
2021/01/30 01:42:10;;;;;;;1.25;1.15;;;6.30;99.90;;;;;;5052518;28;20204;-84
2021/01/30 01:44:37;;;;;;;0.50;0.50;;;6.50;99.90;;;;;;5053582;28;20240;-84
2021/01/30 01:47:06;;;;;;;0.60;0.55;;;6.30;99.90;;;;;;5063440;28;20234;-85
2021/01/30 01:49:35;;;;;;;1.23;1.15;;;6.40;99.90;;;;;;5071660;28;20637;-84
2021/01/30 01:52:21;;;;;;;0.90;0.70;;;6.40;99.90;;;;;;5067719;28;20287;-85
2021/01/30 01:54:49;;;;;;;1.08;0.50;;;6.40;99.90;;;;;;5052024;28;20255;-84
2021/01/30 01:57:16;;;;;;;0.82;0.60;;;6.40;99.90;;;;;;5056679;28;20755;-84
2021/01/30 01:59:47;;;;;;;4.03;1.00;;;6.20;99.90;;;;;;5051866;28;20208;-84
2021/01/30 02:02:14;;;;;;;0.63;0.63;;;6.20;99.90;;;;;;5067138;28;20199;-85
2021/01/30 02:04:47;;;;;;;2.22;0.60;;;6.30;99.90;;;;;;5070362;28;20207;-84
2021/01/30 02:07:16;;;;;;;2.38;0.50;;;6.20;99.90;;;;;;5071323;28;20202;-84
2021/01/30 02:09:48;;;;;;;1.08;0.90;;;6.20;99.90;;;;;;5053249;28;20295;-84
2021/01/30 02:12:17;;;;;;;1.05;0.60;;;6.10;99.90;;;;;;5052309;28;20199;-83
2021/01/30 02:14:49;;;;;;;1.05;0.50;;;6.00;99.90;;;;;;5059043;28;20219;-84
2021/01/30 02:17:34;;;;;;;0.60;0.60;;;6.10;99.90;;;;;;5054401;28;20214;-84
2021/01/30 02:20:43;;;;;;;1.63;0.40;;;6.20;99.90;;;;;;5062204;28;20202;-84
2021/01/30 02:23:46;;;;;;;0.50;0.50;;;6.10;99.90;;;;;;5070769;28;20219;-84
2021/01/30 02:27:08;;;;;;;1.98;0.60;;;6.40;99.90;;;;;;5061202;28;20188;-84
2021/01/30 02:30:10;;;;;;;0.40;0.40;;;6.40;99.90;;;;;;5051733;28;20195;-84
2021/01/30 02:33:01;;;;;;;0.60;0.40;;;6.50;99.90;;;;;;5048177;28;20708;-84
2021/01/30 02:35:47;;;;;;;1.10;0.45;;;6.50;99.90;;;;;;5050876;28;20297;-84
2021/01/30 02:38:21;;;;;;;0.40;0.40;;;6.60;99.90;;;;;;5050479;28;20192;-83
2021/01/30 02:40:54;;;;;;;0.82;0.40;;;6.70;99.90;;;;;;5051422;28;20645;-84
2021/01/30 02:43:25;;;;;;;0.50;0.40;;;6.60;99.90;;;;;;5052189;28;20196;-84
2021/01/30 02:45:58;;;;;;;0.50;0.50;;;6.60;99.90;;;;;;5055628;28;20638;-84
2021/01/30 02:48:33;;;;;;;0.50;0.40;;;6.50;99.90;;;;;;5055146;28;20250;-85
2021/01/30 02:51:05;;;;;;;0.63;0.45;;;6.40;99.90;;;;;;5065813;28;20195;-84
2021/01/30 02:53:36;;;;;;;1.85;0.50;;;6.50;99.90;;;;;;5067490;28;20282;-83
2021/01/30 02:56:06;;;;;;;0.50;0.50;;;6.50;99.90;;;;;;5070372;28;20688;-84
2021/01/30 02:58:37;;;;;;;1.35;0.60;;;6.50;99.90;;;;;;5068760;28;20549;-84
2021/01/30 03:01:05;;;;;;;0.60;0.60;;;6.50;99.90;;;;;;5071840;28;20260;-84
2021/01/30 03:03:35;;;;;;;0.50;0.30;;;6.60;99.90;;;;;;5055866;28;20204;-84
2021/01/30 03:06:09;;;;;;;3.03;0.45;;;6.60;99.90;;;;;;5051645;28;20275;-84
2021/01/30 03:08:44;;;;;;;1.63;0.70;;;6.60;99.90;;;;;;5057214;28;20198;-84
2021/01/30 03:11:16;;;;;;;0.50;0.47;;;6.60;99.90;;;;;;5058529;28;20241;-83
2021/01/30 03:13:51;;;;;;;0.60;0.60;;;6.70;99.90;;;;;;5055259;28;20272;-84
2021/01/30 03:16:22;;;;;;;1.75;0.50;;;6.80;99.90;;;;;;5070741;28;20706;-83
2021/01/30 03:18:53;;;;;;;2.05;0.77;;;6.60;99.90;;;;;;5055466;28;20199;-84
2021/01/30 03:21:21;;;;;;;0.63;0.63;;;6.60;99.90;;;;;;5069429;28;20268;-84
2021/01/30 03:23:50;;;;;;;0.85;0.60;;;6.70;99.90;;;;;;5070505;28;20202;-84
2021/01/30 03:26:20;;;;;;;0.80;0.60;;;6.80;99.90;;;;;;5066102;28;20767;-85
2021/01/30 03:28:48;;;;;;;1.25;0.75;;;6.80;99.90;;;;;;5068663;28;20202;-84
2021/01/30 03:31:15;;;;;;;0.47;0.47;;;6.70;99.90;;;;;;5070161;28;20249;-85
2021/01/30 03:33:42;;;;;;;0.90;0.70;;;6.50;99.90;;;;;;5070115;28;20294;-84
2021/01/30 03:36:09;;;;;;;1.33;0.75;;;6.60;99.90;;;;;;5060820;28;20215;-83
2021/01/30 03:38:36;;;;;;;0.95;0.80;;;6.70;99.90;;;;;;5053731;28;20192;-84
2021/01/30 03:41:04;;;;;;;0.40;0.40;;;6.70;99.90;;;;;;5052587;28;20553;-84
2021/01/30 03:43:30;;;;;;;0.70;0.70;;;6.70;99.90;;;;;;5070667;28;20199;-84
2021/01/30 03:45:56;;;;;;;1.60;0.77;;;6.80;99.90;;;;;;5069640;28;20192;-85
2021/01/30 03:48:23;;;;;;;0.88;0.80;;;6.80;99.90;;;;;;5049388;28;20199;-84
2021/01/30 03:50:50;;;;;;;0.70;0.70;;;6.70;99.90;;;;;;5064582;28;20226;-84
2021/01/30 03:53:16;;;;;;;0.98;0.98;;;6.50;99.90;;;;;;5069326;28;20203;-84
2021/01/30 03:55:43;;;;;;;0.60;0.60;;;6.60;99.90;;;;;;5050215;28;20218;-84
2021/01/30 03:58:10;;;;;;;0.85;0.63;;;6.60;99.90;;;;;;5050871;28;20267;-83
2021/01/30 04:00:37;;;;;;;0.50;0.50;;;6.50;99.90;;;;;;5050553;28;20200;-84
2021/01/30 04:03:04;;;;;;;0.70;0.70;;;6.60;99.90;;;;;;5054825;28;20206;-85
2021/01/30 04:05:33;;;;;;;1.90;0.68;;;6.60;99.90;;;;;;5054638;28;20232;-85
2021/01/30 04:08:01;;;;;;;1.00;0.40;;;6.60;99.90;;;;;;5054092;28;20648;-84
2021/01/30 04:10:29;;;;;;;0.70;0.60;;;6.40;99.90;;;;;;5061870;28;20609;-84
2021/01/30 04:12:56;;;;;;;0.73;0.70;;;6.50;99.90;;;;;;5054500;28;20199;-84
2021/01/30 04:15:27;;;;;;;0.65;0.65;;;6.50;99.90;;;;;;5072150;28;20226;-85
2021/01/30 04:17:53;;;;;;;0.60;0.50;;;6.50;99.90;;;;;;5069627;28;20199;-83
2021/01/30 04:20:20;;;;;;;0.70;0.70;;;6.30;99.90;;;;;;5054369;28;20200;-83
2021/01/30 04:22:46;;;;;;;2.90;0.90;;;6.30;99.90;;;;;;5054403;28;20223;-84
2021/01/30 04:25:15;;;;;;;0.77;0.50;;;6.30;99.90;;;;;;5066247;28;20293;-84
2021/01/30 04:27:41;;;;;;;1.33;0.57;;;6.20;99.90;;;;;;5055085;28;20680;-83
2021/01/30 04:30:10;;;;;;;0.55;0.55;;;6.10;99.90;;;;;;5054448;28;20244;-84
2021/01/30 04:32:37;;;;;;;3.72;0.82;;;6.10;99.90;;;;;;5066647;28;20227;-84
2021/01/30 04:35:07;;;;;;;0.60;0.60;;;6.00;99.90;;;;;;5058569;28;20666;-84
2021/01/30 04:37:35;;;;;;;1.90;0.77;;;6.00;99.90;;;;;;5062781;28;20206;-83
2021/01/30 04:40:03;;;;;;;4.68;0.95;;;6.00;99.90;;;;;;5065232;28;20199;-84
2021/01/30 04:42:37;;;;;;;1.45;0.65;;;6.00;99.90;;;;;;5053997;28;20318;-83
2021/01/30 04:45:14;;;;;;;1.85;0.70;;;6.00;99.90;;;;;;5055332;28;20198;-84
2021/01/30 04:47:49;;;;;;;3.47;1.27;;;7.10;99.90;;;;;;5054733;28;20231;-85
2021/01/30 04:50:27;;;;;;;0.50;0.40;;;6.10;99.90;;;;;;5071197;28;20679;-84
2021/01/30 04:53:01;;;;;;;0.60;0.60;;;6.30;99.90;;;;;;5071621;28;20198;-84
2021/01/30 04:55:39;;;;;;;1.15;0.93;;;6.40;99.90;;;;;;5072518;28;20718;-83
2021/01/30 04:58:15;;;;;;;2.65;0.85;;;6.50;99.90;;;;;;5071404;28;20195;-84
2021/01/30 05:01:00;;;;;;;2.00;0.85;;;6.60;99.90;;;;;;5053723;28;20196;-84
2021/01/30 05:03:54;;;;;;;4.95;0.70;;;6.40;99.90;;;;;;5065328;28;20245;-84
2021/01/30 05:06:38;;;;;;;1.17;0.73;;;6.50;99.90;;;;;;5069516;28;20669;-84
2021/01/30 05:09:11;;;;;;;1.48;0.80;;;6.40;99.90;;;;;;5054609;28;20212;-84
2021/01/30 05:11:39;;;;;;;2.47;0.60;;;6.30;99.90;;;;;;5073112;28;20263;-84
2021/01/30 05:14:12;;;;;;;1.52;0.80;;;6.40;99.90;;;;;;5062883;28;20221;-84
2021/01/30 05:16:51;;;;;;;4.32;0.80;;;6.40;99.90;;;;;;5055649;28;20231;-85
2021/01/30 05:19:19;;;;;;;1.00;0.82;;;6.30;99.90;;;;;;5073099;28;20207;-84
2021/01/30 05:21:51;;;;;;;1.90;1.00;;;6.30;99.90;;;;;;5070477;28;20234;-83
2021/01/30 05:24:19;;;;;;;1.45;1.00;;;6.30;99.90;;;;;;5058573;28;20203;-82
2021/01/30 05:26:54;;;;;;;1.25;1.15;;;6.40;99.90;;;;;;5061439;28;20222;-84
2021/01/30 05:29:25;;;;;;;2.15;1.17;;;6.50;99.90;;;;;;5059189;28;20198;-84
2021/01/30 05:31:59;;;;;;;2.10;0.90;;;6.60;99.90;;;;;;5065148;28;20269;-83
2021/01/30 05:34:31;;;;;;;3.47;1.17;;;6.40;99.90;;;;;;5062989;28;20203;-84
2021/01/30 05:37:02;;;;;;;4.55;1.63;;;6.30;99.90;;;;;;5072282;28;20272;-84
2021/01/30 05:39:47;;;;;;;3.08;1.33;;;6.10;99.90;;;;;;5063634;28;20827;-84
2021/01/30 05:42:20;;;;;;;2.80;1.10;;;6.30;99.90;;;;;;5072221;28;20256;-83
2021/01/30 05:44:52;;;;;;;7.60;0.93;;;6.20;99.90;;;;;;5054852;28;20211;-84
2021/01/30 05:47:30;;;;;;;3.97;1.02;;;6.20;99.90;;;;;;5065093;28;20585;-83
2021/01/30 05:50:06;;;;;;;2.40;1.20;;;6.20;99.90;;;;;;5067485;28;20217;-83
2021/01/30 05:52:35;;;;;;;5.50;1.30;;;6.20;99.90;;;;;;5069702;28;20204;-84
2021/01/30 05:55:03;;;;;;;3.28;1.48;;;6.20;99.90;;;;;;5073104;28;20195;-85
2021/01/30 05:57:29;;;;;;;3.97;1.90;;;6.20;99.90;;;;;;5052708;28;20238;-84
2021/01/30 05:59:58;;;;;;;3.53;1.33;;;6.20;99.90;;;;;;5053628;28;20861;-84
2021/01/30 06:02:27;;;;;;;1.98;1.50;;;6.10;99.90;;;;;;5052781;28;20246;-83
2021/01/30 06:04:54;;;;;;;3.85;1.30;;;6.10;99.90;;;;;;5066275;28;20272;-84
2021/01/30 06:07:29;;;;;;;4.15;1.55;;;6.10;99.90;;;;;;5065598;28;20234;-84
2021/01/30 06:09:56;;;;;;;2.08;1.30;;;6.10;99.90;;;;;;5064060;28;20230;-83
2021/01/30 06:12:26;;;;;;;8.25;1.65;;;6.00;99.90;;;;;;5052466;28;20208;-84
2021/01/30 06:14:55;;;;;;;2.45;1.40;;;6.10;99.90;;;;;;5056917;28;20209;-84
2021/01/30 06:17:32;;;;;;;2.65;1.55;;;6.00;99.90;;;;;;5072134;28;20237;-84
2021/01/30 06:20:14;;;;;;;5.13;2.20;;;5.90;99.90;;;;;;5057140;28;20239;-83
2021/01/30 06:22:42;;;;;;;7.72;1.60;;;5.90;99.90;;;;;;5068400;28;20226;-84
2021/01/30 06:25:25;;;;;;;9.48;2.03;;;5.90;99.90;;;;;;5054726;28;20219;-84
2021/01/30 06:27:56;;;;;;;2.53;1.50;;;6.00;99.90;;;;;;5056052;28;20196;-83
2021/01/30 06:30:34;;;;;;;6.32;1.75;;;5.90;99.90;;;;;;5071927;28;20196;-84
2021/01/30 06:33:04;;;;;;;2.45;1.70;;;6.10;99.90;;;;;;5054446;28;20686;-84
2021/01/30 06:35:38;;;;;;;1.85;1.45;;;6.20;99.90;;;;;;5056384;28;20239;-83
2021/01/30 06:38:16;;;;;;;6.40;1.85;;;6.30;99.90;;;;;;5071699;28;20211;-84
2021/01/30 06:40:55;;;;;;;2.35;1.83;;;6.30;99.90;;;;;;5064397;28;20572;-84
2021/01/30 06:43:30;;;;;;;5.45;1.50;;;6.30;99.90;;;;;;5052508;28;20228;-84
2021/01/30 06:46:08;;;;;;;5.70;1.48;;;6.20;99.90;;;;;;5067702;28;20538;-84
2021/01/30 06:48:39;;;;;;;4.07;1.70;;;6.40;99.90;;;;;;5070445;28;20349;-84
2021/01/30 06:51:23;;;;;;;6.97;1.60;;;6.40;99.90;;;;;;5069892;28;20676;-84
2021/01/30 06:53:51;;;;;;;1.63;1.52;;;6.40;99.90;;;;;;5061590;28;20262;-84
2021/01/30 06:56:20;;;;;;;3.40;1.77;;;6.40;99.90;;;;;;5059501;28;20219;-84
2021/01/30 06:58:48;;;;;;;7.47;2.40;;;6.50;99.90;;;;;;5065884;28;20200;-84
2021/01/30 07:01:17;;;;;;;3.47;1.63;;;6.40;99.90;;;;;;5051558;28;20207;-85
2021/01/30 07:04:08;;;;;;;6.82;2.00;;;6.50;99.90;;;;;;5065876;28;20207;-85
2021/01/30 07:06:46;;;;;;;4.68;1.65;;;6.50;99.90;;;;;;5064136;28;20196;-84
2021/01/30 07:09:29;;;;;;;9.73;3.50;;;6.60;99.90;;;;;;5050913;28;20208;-85
2021/01/30 07:12:05;;;;;;;3.03;1.92;;;6.50;99.90;;;;;;5051230;28;20242;-85
2021/01/30 07:14:51;;;;;;;7.40;1.95;;;6.50;99.90;;;;;;5050162;28;20653;-84
2021/01/30 07:17:30;;;;;;;4.82;1.95;;;6.50;99.90;;;;;;5050916;28;20539;-84
2021/01/30 07:20:05;;;;;;;3.05;1.55;;;6.50;99.90;;;;;;5057730;28;20210;-83
2021/01/30 07:22:42;;;;;;;3.85;1.58;;;6.60;99.90;;;;;;5070924;28;20238;-85
2021/01/30 07:25:16;;;;;;;2.72;1.88;;;6.60;99.90;;;;;;5058040;28;20210;-84
2021/01/30 07:27:48;;;;;;;6.15;1.85;;;6.60;99.90;;;;;;5057411;28;20688;-84
2021/01/30 07:30:17;;;;;;;6.32;2.38;;;6.60;99.90;;;;;;5059885;28;20199;-84
2021/01/30 07:32:53;;;;;;;5.90;1.75;;;6.70;99.90;;;;;;5059031;28;20216;-84
2021/01/30 07:35:25;;;;;;;5.43;2.05;;;6.70;99.90;;;;;;5056734;28;20218;-85
2021/01/30 07:37:57;;;;;;;6.57;2.28;;;6.70;99.90;;;;;;5059025;28;20232;-84
2021/01/30 07:40:38;;;;;;;7.82;2.10;;;6.70;99.90;;;;;;5049316;28;20203;-84
2021/01/30 07:43:14;;;;;;;5.07;2.33;;;6.60;99.90;;;;;;5056655;28;20202;-84
2021/01/30 07:45:45;;;;;;;6.22;2.20;;;6.60;99.90;;;;;;5057825;28;20187;-85
2021/01/30 07:48:18;;;;;;;6.88;1.90;;;6.80;99.90;;;;;;5055055;28;20195;-83
2021/01/30 07:50:50;;;;;;;6.32;2.10;;;6.80;99.90;;;;;;5055912;28;20199;-84
2021/01/30 07:53:19;;;;;;;8.73;2.00;;;6.90;99.90;;;;;;5057649;28;20230;-85
2021/01/30 07:56:07;;;;;;;3.17;2.13;;;6.70;99.90;;;;;;5060990;28;20215;-84
2021/01/30 07:58:47;;;;;;;2.95;2.10;;;6.70;99.90;;;;;;5056759;28;20210;-84
2021/01/30 08:01:26;;;;;;;9.00;2.30;;;6.60;99.90;;;;;;5056932;28;20261;-84
2021/01/30 08:04:34;;;;;;;4.47;2.22;;;6.80;99.90;;;;;;5057037;28;20297;-85
2021/01/30 08:07:10;;;;;;;2.42;1.70;;;6.90;99.90;;;;;;5055970;28;20192;-84
2021/01/30 08:09:46;;;;;;;4.03;1.83;;;6.60;99.90;;;;;;5049131;28;20199;-84
2021/01/30 08:12:21;;;;;;;4.93;1.88;;;6.70;99.90;;;;;;5060149;28;20210;-83
2021/01/30 08:14:56;;;;;;;6.43;2.30;;;6.70;99.90;;;;;;5068859;28;20676;-85
2021/01/30 08:17:50;;;;;;;5.30;2.00;;;6.80;99.90;;;;;;5055762;28;20206;-85
2021/01/30 08:20:20;;;;;;;7.38;2.20;;;6.90;99.90;;;;;;5066629;28;20206;-84
2021/01/30 08:22:58;;;;;;;4.72;2.28;;;7.10;99.90;;;;;;5053810;28;20554;-85
2021/01/30 08:25:33;;;;;;;8.13;2.65;;;7.20;99.90;;;;;;5052154;28;20201;-85
2021/01/30 08:28:09;;;;;;;7.55;2.28;;;7.40;99.90;;;;;;5067993;28;20545;-84
2021/01/30 08:30:37;;;;;;;3.88;1.92;;;7.40;99.90;;;;;;5066806;28;20550;-84
2021/01/30 08:33:05;;;;;;;6.20;2.08;;;7.60;99.90;;;;;;5067510;28;20221;-85
2021/01/30 08:35:48;;;;;;;5.80;2.90;;;7.50;99.80;;;;;;5058878;28;20227;-84
2021/01/30 08:38:39;;;;;;;3.95;1.70;;;7.40;99.80;;;;;;5062150;28;20260;-83
2021/01/30 08:41:41;;;;;;;4.18;2.20;;;7.40;99.90;;;;;;5047421;28;20220;-84
2021/01/30 08:44:36;;;;;;;6.50;2.97;;;7.50;99.90;;;;;;5057442;28;20672;-83
2021/01/30 08:47:22;;;;;;;4.43;2.10;;;7.60;99.90;;;;;;5055083;28;20196;-83
2021/01/30 08:50:11;;;;;;;3.47;2.35;;;7.80;99.90;;;;;;5061128;28;20210;-83
2021/01/30 08:52:49;;;;;;;3.50;2.28;;;7.60;99.80;;;;;;5055799;28;20220;-84
2021/01/30 08:55:48;;;;;;;6.28;4.10;;;7.40;99.90;;;;;;5061537;28;20195;-84
2021/01/30 08:58:48;;;;;;;10.07;2.90;;;7.60;99.90;;;;;;5051581;28;20196;-83
2021/01/30 09:01:50;;;;;;;3.85;2.30;;;7.70;99.90;;;;;;5052255;28;20204;-85
2021/01/30 09:04:46;;;;;;;6.15;3.78;;;7.60;99.90;;;;;;5024709;28;20280;-84
2021/01/30 09:07:44;;;;;;;6.38;2.72;;;7.70;99.90;;;;;;5042319;28;20208;-82
2021/01/30 09:10:38;;;;;;;4.57;2.95;;;7.80;99.90;;;;;;5051599;28;20231;-83
2021/01/30 09:13:08;;;;;;;4.45;2.55;;;7.90;99.90;;;;;;5055579;28;20196;-83
2021/01/30 09:15:59;;;;;;;5.50;3.05;;;7.90;99.90;;;;;;5072782;28;20223;-82
2021/01/30 09:18:52;;;;;;;3.63;2.85;;;8.00;99.90;;;;;;5063473;28;20207;-83
2021/01/30 09:21:50;;;;;;;4.80;2.58;;;8.10;99.80;;;;;;5053943;28;20579;-83
2021/01/30 09:24:48;;;;;;;5.28;2.33;;;8.10;99.70;;;;;;5053170;28;20207;-83
2021/01/30 09:27:21;;;;;;;4.82;3.20;;;8.00;99.60;;;;;;5066613;28;20199;-83
2021/01/30 09:29:50;;;;;;;4.90;2.63;;;7.90;99.80;;;;;;5069466;28;20214;-83
2021/01/30 09:32:24;;;;;;;7.40;3.22;;;7.90;99.60;;;;;;5073333;28;20692;-83
2021/01/30 09:34:52;;;;;;;6.85;2.70;;;7.90;99.60;;;;;;5066280;28;20204;-84
2021/01/30 09:37:32;;;;;;;5.43;2.50;;;7.90;99.70;;;;;;5052648;28;20220;-82
2021/01/30 09:40:00;;;;;;;5.75;2.70;;;8.10;99.60;;;;;;5052205;28;20195;-83
2021/01/30 09:42:28;;;;;;;14.23;5.20;;;8.10;99.10;;;;;;5054421;28;20624;-83
2021/01/30 09:45:04;;;;;;;8.57;4.20;;;8.00;99.00;;;;;;5071715;28;20207;-83
2021/01/30 09:47:32;;;;;;;7.47;3.50;;;8.00;99.50;;;;;;5059884;28;20206;-82
2021/01/30 09:50:01;;;;;;;4.35;3.38;;;8.00;99.20;;;;;;5058664;28;20222;-83
2021/01/30 09:52:29;;;;;;;3.72;2.53;;;8.00;99.10;;;;;;5072561;28;20584;-83
2021/01/30 09:54:57;;;;;;;3.95;2.38;;;8.20;99.30;;;;;;5070693;28;20199;-83
2021/01/30 09:57:26;;;;;;;5.75;2.55;;;7.90;99.50;;;;;;5068416;28;20227;-83
2021/01/30 09:59:56;;;;;;;5.38;2.22;;;8.20;99.60;;;;;;5057543;28;20202;-83
2021/01/30 10:02:24;;;;;;;8.35;2.65;;;8.40;99.60;;;;;;5069506;28;20206;-82
2021/01/30 10:05:03;;;;;;;5.10;2.47;;;8.30;99.10;;;;;;5052067;28;20245;-82
2021/01/30 10:07:30;;;;;;;7.90;2.90;;;8.30;99.00;;;;;;5068349;28;20723;-83
2021/01/30 10:09:56;;;;;;;11.93;2.85;;;8.20;99.20;;;;;;5064927;28;20641;-83
2021/01/30 10:12:25;;;;;;;7.55;2.60;;;7.80;99.20;;;;;;5051189;28;20200;-82
2021/01/30 10:14:54;;;;;;;3.85;2.25;;;7.80;99.90;;;;;;5052575;28;20289;-84
2021/01/30 10:17:27;;;;;;;3.22;2.15;;;7.90;99.90;;;;;;5052720;28;20270;-84
2021/01/30 10:19:58;;;;;;;5.75;2.95;;;8.10;99.90;;;;;;5055844;28;20230;-82
2021/01/30 10:22:35;;;;;;;4.07;2.00;;;8.00;99.90;;;;;;5051800;28;20599;-83
2021/01/30 10:25:06;;;;;;;5.10;2.60;;;8.00;99.90;;;;;;5051909;28;20670;-84
2021/01/30 10:27:33;;;;;;;3.95;2.30;;;8.20;99.90;;;;;;5069425;28;20564;-83
2021/01/30 10:30:00;;;;;;;8.18;2.97;;;8.00;99.90;;;;;;5065088;28;20200;-84
2021/01/30 10:32:39;;;;;;;7.50;3.10;;;8.10;99.90;;;;;;5064905;28;20223;-83
2021/01/30 10:35:13;;;;;;;11.00;3.38;;;8.20;99.90;;;;;;5055116;28;20559;-84
2021/01/30 10:37:43;;;;;;;2.42;2.13;;;8.00;99.90;;;;;;5062397;28;20276;-83
2021/01/30 10:40:18;;;;;;;6.22;2.53;;;8.10;99.90;;;;;;5070310;28;20673;-84
2021/01/30 10:42:45;;;;;;;8.00;2.95;;;7.90;99.90;;;;;;5051053;28;20199;-85
2021/01/30 10:45:19;;;;;;;6.20;2.55;;;7.80;99.90;;;;;;5067924;28;20196;-84
2021/01/30 10:47:51;;;;;;;4.70;2.47;;;7.60;99.90;;;;;;5069617;28;20202;-84
2021/01/30 10:50:24;;;;;;;4.28;2.35;;;7.60;99.90;;;;;;5071153;28;20203;-82
2021/01/30 10:52:54;;;;;;;5.00;2.35;;;7.60;99.90;;;;;;5051402;28;20219;-82
2021/01/30 10:55:24;;;;;;;8.27;2.80;;;7.70;99.90;;;;;;5068905;28;20195;-83
2021/01/30 10:57:51;;;;;;;6.55;3.03;;;7.50;99.90;;;;;;5061520;28;20253;-84
2021/01/30 11:00:27;;;;;;;3.60;2.15;;;7.70;99.90;;;;;;5051276;28;20196;-83
2021/01/30 11:02:54;;;;;;;5.53;2.58;;;7.80;99.90;;;;;;5050939;28;20660;-84
2021/01/30 11:05:29;;;;;;;5.75;2.25;;;7.80;99.90;;;;;;5069012;28;20282;-83
2021/01/30 11:08:00;;;;;;;3.78;2.60;;;7.80;99.90;;;;;;5070648;28;20199;-82
2021/01/30 11:10:41;;;;;;;5.78;2.55;;;7.90;99.90;;;;;;5052460;28;20232;-82
2021/01/30 11:13:27;;;;;;;7.53;2.85;;;7.90;99.90;;;;;;5071548;28;20210;-83
2021/01/30 11:16:08;;;;;;;8.80;3.03;;;7.90;99.90;;;;;;5051083;28;20234;-84
2021/01/30 11:18:38;;;;;;;11.93;2.70;;;8.10;99.90;;;;;;5052386;28;20211;-84
2021/01/30 11:21:07;;;;;;;4.28;2.58;;;8.30;99.90;;;;;;5056776;28;20572;-83
2021/01/30 11:23:41;;;;;;;7.95;3.78;;;8.40;99.90;;;;;;5064352;28;20192;-83
2021/01/30 11:26:21;;;;;;;8.93;3.25;;;8.50;99.90;;;;;;5065075;28;20202;-84
2021/01/30 11:28:48;;;;;;;7.18;3.67;;;8.60;99.90;;;;;;5054863;28;20219;-83
2021/01/30 11:31:16;;;;;;;10.10;2.90;;;8.70;99.90;;;;;;5057471;28;20203;-83
2021/01/30 11:33:44;;;;;;;4.93;2.63;;;8.80;99.90;;;;;;5060180;28;20192;-83
2021/01/30 11:36:15;;;;;;;10.97;2.80;;;8.70;99.90;;;;;;5051571;28;20948;-84
2021/01/30 11:38:43;;;;;;;6.78;3.35;;;8.90;99.90;;;;;;5055555;28;20660;-84
2021/01/30 11:41:10;;;;;;;6.00;3.67;;;8.80;99.90;;;;;;5055671;28;20211;-83
2021/01/30 11:43:37;;;;;;;5.60;3.40;;;8.70;99.90;;;;;;5055398;28;21177;-83
2021/01/30 11:46:03;;;;;;;8.30;2.90;;;8.70;99.90;;;;;;5059303;28;21181;-83
2021/01/30 11:48:30;;;;;;;9.90;3.37;;;8.80;99.90;;;;;;5066609;28;20638;-83
2021/01/30 11:50:56;;;;;;;11.57;3.87;;;9.00;99.90;;;;;;5069535;28;20617;-82
2021/01/30 11:53:26;;;;;;;9.97;3.03;;;9.20;99.90;;;;;;5068148;28;20593;-83
2021/01/30 11:55:53;;;;;;;8.10;3.73;;;9.30;99.90;;;;;;5062367;28;20657;-83
2021/01/30 11:58:20;;;;;;;9.18;3.50;;;9.30;99.90;;;;;;5055996;28;21101;-84
2021/01/30 12:00:47;;;;;;;5.13;3.63;;;9.20;99.90;;;;;;5070939;28;20210;-84
2021/01/30 12:03:22;;;;;;;6.57;2.77;;;9.20;99.90;;;;;;5070253;28;20643;-83
2021/01/30 12:05:48;;;;;;;7.27;2.80;;;9.30;99.90;;;;;;5062845;28;20617;-83
2021/01/30 12:08:15;;;;;;;5.67;3.40;;;9.40;99.90;;;;;;5053562;28;20622;-83
2021/01/30 12:10:41;;;;;;;4.73;3.20;;;9.40;99.90;;;;;;5058366;28;20606;-83
2021/01/30 12:13:08;;;;;;;6.30;2.87;;;9.40;99.90;;;;;;5049531;28;20623;-83
2021/01/30 12:15:35;;;;;;;5.97;2.33;;;9.40;99.90;;;;;;5049548;28;20607;-83
2021/01/30 12:18:06;;;;;;;9.53;3.40;;;9.30;99.90;;;;;;5049616;28;21267;-84
2021/01/30 12:20:32;;;;;;;8.23;3.80;;;9.40;99.90;;;;;;5049930;28;20660;-83
2021/01/30 12:22:59;;;;;;;3.17;2.37;;;9.40;99.90;;;;;;5055271;28;20614;-83
2021/01/30 12:25:25;;;;;;;3.30;1.90;;;9.30;99.90;;;;;;5059591;28;20642;-83
2021/01/30 12:27:54;;;;;;;2.37;1.90;;;9.30;99.90;;;;;;5069766;28;20612;-83
2021/01/30 12:30:24;;;;;;;4.20;2.33;;;9.20;99.90;;;;;;5072622;28;20613;-84
2021/01/30 12:32:51;;;;;;;4.93;2.40;;;9.20;99.90;;;;;;5069993;28;21006;-83
2021/01/30 12:35:19;;;;;;;4.57;2.33;;;9.10;99.90;;;;;;5070845;28;20629;-82
2021/01/30 12:37:46;;;;;;;7.00;2.97;;;9.30;99.90;;;;;;5069549;28;20215;-84
2021/01/30 12:40:14;;;;;;;8.13;2.70;;;9.20;99.90;;;;;;5059584;28;20605;-83
2021/01/30 12:42:41;;;;;;;5.30;2.20;;;9.20;99.90;;;;;;5067669;28;20622;-83
2021/01/30 12:45:09;;;;;;;6.80;3.00;;;9.10;99.90;;;;;;5062183;28;21474;-84
2021/01/30 12:47:36;;;;;;;4.63;1.90;;;9.20;99.90;;;;;;5069144;28;20621;-83
2021/01/30 12:50:06;;;;;;;6.60;2.47;;;9.10;99.90;;;;;;5054314;28;20618;-84
2021/01/30 12:52:32;;;;;;;5.73;2.60;;;9.20;99.90;;;;;;5056597;28;21016;-84
2021/01/30 12:54:58;;;;;;;5.47;2.27;;;9.10;99.90;;;;;;5073320;28;20671;-85
2021/01/30 12:57:25;;;;;;;6.77;2.47;;;9.10;99.90;;;;;;5071335;28;21095;-83
2021/01/30 12:59:51;;;;;;;5.47;3.43;;;9.10;99.90;;;;;;5062830;28;20613;-83
2021/01/30 13:02:18;;;;;;;2.20;2.00;;;9.10;99.90;;;;;;5063205;28;21420;-83
2021/01/30 13:05:09;;;;;;;3.35;2.47;;;9.10;99.90;;;;;;5063225;28;20664;-84
2021/01/30 13:07:36;;;;;;;4.20;2.50;;;9.00;99.90;;;;;;5061336;28;20226;-83
2021/01/30 13:10:03;;;;;;;6.47;4.17;;;9.00;99.90;;;;;;5071670;28;20645;-84
2021/01/30 13:12:30;;;;;;;3.80;2.50;;;9.00;99.90;;;;;;5061869;28;21182;-83
2021/01/30 13:14:57;;;;;;;3.37;2.30;;;9.00;99.90;;;;;;5066536;28;20690;-84
2021/01/30 13:17:23;;;;;;;3.13;2.10;;;8.80;99.90;;;;;;5067400;28;20651;-83
2021/01/30 13:19:51;;;;;;;5.90;2.83;;;8.90;99.90;;;;;;5072459;28;20641;-83
2021/01/30 13:22:21;;;;;;;5.00;2.30;;;8.90;99.90;;;;;;5072413;28;20610;-84
2021/01/30 13:24:48;;;;;;;8.70;2.77;;;8.90;99.90;;;;;;5068244;28;20618;-84
2021/01/30 13:27:15;;;;;;;8.10;2.63;;;8.80;99.90;;;;;;5069834;28;20698;-84